Time;durP1;ratioP1;P1;durP2;ratioP2;P2;SDS_P1;SDS_P2;PMS_P1;PMS_P2;Temp;Humidity;BMP_temperature;BMP_pressure;BME280_temperature;BME280_humidity;BME280_pressure;Samples;Min_cycle;Max_cycle;Signal;HPM_P1;HPM_P2
2022/05/17 00:00:45;;;;;;;3.17;2.13;;;;;;;;;;5081516;28;20086;-50
2022/05/17 00:03:13;;;;;;;1.85;1.30;;;;;;;;;;5092030;28;20035;-50
2022/05/17 00:05:39;;;;;;;4.43;1.75;;;;;;;;;;5090189;28;20067;-52
2022/05/17 00:08:05;;;;;;;1.65;1.45;;;;;;;;;;5079008;28;20056;-49
2022/05/17 00:10:31;;;;;;;3.50;1.60;;;;;;;;;;5071745;28;20444;-52
2022/05/17 00:12:57;;;;;;;3.65;1.50;;;;;;;;;;5071604;28;20104;-54
2022/05/17 00:15:23;;;;;;;2.78;1.40;;;;;;;;;;5062694;28;20048;-56
2022/05/17 00:17:50;;;;;;;3.00;1.60;;;;;;;;;;5071101;28;20041;-52
2022/05/17 00:20:17;;;;;;;3.13;1.40;;;;;;;;;;5080072;28;20025;-52
2022/05/17 00:22:43;;;;;;;3.22;1.85;;;;;;;;;;5073057;28;20025;-51
2022/05/17 00:25:11;;;;;;;2.63;1.73;;;;;;;;;;5094738;28;20209;-51
2022/05/17 00:27:37;;;;;;;2.63;1.50;;;;;;;;;;5092253;28;20039;-52
2022/05/17 00:30:04;;;;;;;2.35;1.45;;;;;;;;;;5092798;28;20055;-53
2022/05/17 00:32:30;;;;;;;3.17;1.67;;;;;;;;;;5079735;28;20029;-52
2022/05/17 00:34:56;;;;;;;2.97;1.63;;;;;;;;;;5075342;28;20036;-49
2022/05/17 00:37:22;;;;;;;1.60;1.50;;;;;;;;;;5075148;28;20040;-56
2022/05/17 00:39:48;;;;;;;3.10;2.13;;;;;;;;;;5090179;28;20029;-50
2022/05/17 00:42:14;;;;;;;2.10;1.50;;;;;;;;;;5094258;28;20524;-51
2022/05/17 00:44:43;;;;;;;3.35;2.00;;;;;;;;;;5076273;28;20016;-52
2022/05/17 00:47:15;;;;;;;3.90;1.70;;;;;;;;;;5074310;28;20052;-53
2022/05/17 00:49:41;;;;;;;1.80;1.33;;;;;;;;;;5072884;28;20044;-52
2022/05/17 00:52:12;;;;;;;4.03;1.60;;;;;;;;;;5075958;28;20094;-52
2022/05/17 00:54:39;;;;;;;3.13;1.55;;;;;;;;;;5073886;28;20032;-51
2022/05/17 00:57:15;;;;;;;2.72;1.70;;;;;;;;;;5073586;28;20031;-53
2022/05/17 00:59:41;;;;;;;3.90;1.33;;;;;;;;;;5074011;28;20481;-56
2022/05/17 01:02:08;;;;;;;2.85;1.38;;;;;;;;;;5074302;28;20029;-52
2022/05/17 01:04:35;;;;;;;2.05;1.40;;;;;;;;;;5072976;28;20039;-54
2022/05/17 01:07:03;;;;;;;3.10;1.90;;;;;;;;;;5076834;28;20039;-52
2022/05/17 01:09:29;;;;;;;2.30;1.70;;;;;;;;;;5074175;28;20524;-52
2022/05/17 01:11:55;;;;;;;3.95;1.55;;;;;;;;;;5073270;28;20128;-53
2022/05/17 01:17:07;;;;;;;2.13;1.38;;;;;;;;;;5070678;28;20562;-49
2022/05/17 01:19:33;;;;;;;2.03;1.48;;;;;;;;;;5071895;28;20489;-50
2022/05/17 01:22:00;;;;;;;3.35;1.15;;;;;;;;;;5075410;28;20020;-53
2022/05/17 01:24:26;;;;;;;2.53;1.50;;;;;;;;;;5072327;28;20111;-58
2022/05/17 01:26:57;;;;;;;3.92;1.80;;;;;;;;;;5075222;28;20037;-49
2022/05/17 01:29:23;;;;;;;2.83;1.60;;;;;;;;;;5072291;28;20016;-55
2022/05/17 01:31:51;;;;;;;2.92;1.60;;;;;;;;;;5073728;28;20024;-48
2022/05/17 01:34:17;;;;;;;1.95;1.60;;;;;;;;;;5074962;28;20461;-52
2022/05/17 01:36:43;;;;;;;1.98;1.50;;;;;;;;;;5076631;28;20028;-51
2022/05/17 01:39:09;;;;;;;4.10;1.73;;;;;;;;;;5076507;28;20055;-53
2022/05/17 01:41:35;;;;;;;3.95;1.20;;;;;;;;;;5073617;28;20362;-51
2022/05/17 01:44:01;;;;;;;2.47;1.60;;;;;;;;;;5077424;28;20031;-51
2022/05/17 01:46:27;;;;;;;3.25;2.13;;;;;;;;;;5074038;28;20051;-55
2022/05/17 01:48:54;;;;;;;3.50;1.80;;;;;;;;;;5072697;28;20037;-49
2022/05/17 01:51:20;;;;;;;2.85;1.60;;;;;;;;;;5073637;28;20059;-50
2022/05/17 01:53:46;;;;;;;3.38;2.10;;;;;;;;;;5071407;28;20046;-53
2022/05/17 01:56:12;;;;;;;3.72;2.08;;;;;;;;;;5074805;28;20020;-51
2022/05/17 01:58:38;;;;;;;4.13;1.77;;;;;;;;;;5073107;28;20024;-53
2022/05/17 02:01:07;;;;;;;1.65;1.35;;;;;;;;;;5072341;28;20029;-54
2022/05/17 02:03:33;;;;;;;3.17;1.73;;;;;;;;;;5074638;28;20159;-54
2022/05/17 02:05:59;;;;;;;2.45;1.75;;;;;;;;;;5071059;28;20032;-52
2022/05/17 02:08:26;;;;;;;2.20;1.52;;;;;;;;;;5071612;28;20089;-57
2022/05/17 02:10:52;;;;;;;1.80;1.50;;;;;;;;;;5074004;28;20032;-53
2022/05/17 02:13:18;;;;;;;3.33;1.30;;;;;;;;;;5073835;28;20028;-54
2022/05/17 02:15:44;;;;;;;1.80;1.30;;;;;;;;;;5072725;28;20142;-50
2022/05/17 02:18:10;;;;;;;2.17;1.52;;;;;;;;;;5073486;28;20024;-52
2022/05/17 02:20:37;;;;;;;3.70;2.03;;;;;;;;;;5071181;28;20033;-54
2022/05/17 02:23:03;;;;;;;2.25;1.52;;;;;;;;;;5073933;28;20381;-56
2022/05/17 02:25:29;;;;;;;2.47;1.73;;;;;;;;;;5072393;28;20021;-54
2022/05/17 02:27:55;;;;;;;4.13;1.88;;;;;;;;;;5072186;28;20028;-51
2022/05/17 02:30:21;;;;;;;6.03;2.60;;;;;;;;;;5071769;28;20424;-53
2022/05/17 02:32:47;;;;;;;2.22;1.45;;;;;;;;;;5089589;28;20028;-52
2022/05/17 02:35:13;;;;;;;3.00;2.05;;;;;;;;;;5092320;28;20385;-51
2022/05/17 02:37:39;;;;;;;1.88;1.60;;;;;;;;;;5075742;28;20035;-53
2022/05/17 02:40:06;;;;;;;2.67;1.52;;;;;;;;;;5089930;28;20031;-51
2022/05/17 02:42:32;;;;;;;3.75;1.75;;;;;;;;;;5078065;28;20039;-52
2022/05/17 02:44:57;;;;;;;3.42;1.70;;;;;;;;;;5075821;28;20445;-52
2022/05/17 02:47:23;;;;;;;2.75;1.60;;;;;;;;;;5085850;28;20059;-50
2022/05/17 02:49:49;;;;;;;2.97;1.77;;;;;;;;;;5071724;28;20512;-56
2022/05/17 02:52:15;;;;;;;2.92;1.63;;;;;;;;;;5072858;28;20059;-52
2022/05/17 02:54:41;;;;;;;2.17;1.75;;;;;;;;;;5087362;28;20028;-55
2022/05/17 02:57:08;;;;;;;3.42;1.90;;;;;;;;;;5072893;28;20032;-53
2022/05/17 02:59:34;;;;;;;1.88;1.65;;;;;;;;;;5071840;28;20086;-50
2022/05/17 03:02:00;;;;;;;3.63;2.00;;;;;;;;;;5072454;28;20117;-53
2022/05/17 03:04:26;;;;;;;1.90;1.58;;;;;;;;;;5078257;28;20526;-56
2022/05/17 03:06:53;;;;;;;2.70;1.40;;;;;;;;;;5083204;28;20043;-50
2022/05/17 03:09:19;;;;;;;2.72;1.60;;;;;;;;;;5092123;28;20036;-54
2022/05/17 03:11:45;;;;;;;3.22;1.73;;;;;;;;;;5075510;28;20020;-52
2022/05/17 03:14:12;;;;;;;2.72;1.70;;;;;;;;;;5072464;28;20059;-52
2022/05/17 03:16:38;;;;;;;2.47;1.77;;;;;;;;;;5081996;28;20372;-49
2022/05/17 03:19:04;;;;;;;2.20;1.60;;;;;;;;;;5077977;28;20060;-51
2022/05/17 03:21:31;;;;;;;2.38;1.42;;;;;;;;;;5086746;28;20078;-58
2022/05/17 03:23:57;;;;;;;2.35;1.58;;;;;;;;;;5073169;28;20024;-52
2022/05/17 03:26:23;;;;;;;3.70;1.63;;;;;;;;;;5072187;28;20025;-51
2022/05/17 03:28:49;;;;;;;2.85;1.80;;;;;;;;;;5071490;28;20029;-51
2022/05/17 03:31:15;;;;;;;2.20;1.42;;;;;;;;;;5081268;28;20074;-54
2022/05/17 03:33:42;;;;;;;2.80;1.73;;;;;;;;;;5074003;28;20084;-52
2022/05/17 03:36:08;;;;;;;2.50;1.30;;;;;;;;;;5077628;28;20028;-51
2022/05/17 03:38:35;;;;;;;2.65;1.60;;;;;;;;;;5070961;28;20433;-50
2022/05/17 03:41:01;;;;;;;3.25;1.90;;;;;;;;;;5091665;28;20059;-50
2022/05/17 03:43:28;;;;;;;3.50;1.90;;;;;;;;;;5084721;28;20158;-54
2022/05/17 03:45:57;;;;;;;3.25;2.05;;;;;;;;;;5085270;28;20114;-51
2022/05/17 03:48:25;;;;;;;2.50;1.58;;;;;;;;;;5090228;28;20036;-53
2022/05/17 03:50:51;;;;;;;2.47;1.80;;;;;;;;;;5071021;28;20648;-51
2022/05/17 03:53:17;;;;;;;2.95;1.48;;;;;;;;;;5078837;28;20027;-50
2022/05/17 03:55:43;;;;;;;2.97;1.65;;;;;;;;;;5079064;28;20082;-52
2022/05/17 03:58:09;;;;;;;3.67;2.03;;;;;;;;;;5072579;28;20024;-50
2022/05/17 04:00:35;;;;;;;2.15;1.60;;;;;;;;;;5072185;28;20086;-52
2022/05/17 04:03:02;;;;;;;3.35;1.73;;;;;;;;;;5072007;28;20055;-54
2022/05/17 04:05:28;;;;;;;2.50;1.80;;;;;;;;;;5071244;28;20027;-53
2022/05/17 04:07:55;;;;;;;2.08;1.58;;;;;;;;;;5070099;28;20082;-53
2022/05/17 04:10:22;;;;;;;2.92;1.83;;;;;;;;;;5063686;28;20020;-49
2022/05/17 04:12:48;;;;;;;2.63;2.00;;;;;;;;;;5070972;28;20086;-49
2022/05/17 04:15:16;;;;;;;4.05;2.25;;;;;;;;;;5071386;28;20103;-51
2022/05/17 04:17:42;;;;;;;4.22;2.08;;;;;;;;;;5062039;28;20037;-53
2022/05/17 04:20:09;;;;;;;2.47;1.90;;;;;;;;;;5053945;28;20163;-53
2022/05/17 04:22:35;;;;;;;3.40;1.95;;;;;;;;;;5074250;28;20025;-53
2022/05/17 04:25:01;;;;;;;2.83;1.92;;;;;;;;;;5054875;28;20086;-51
2022/05/17 04:27:27;;;;;;;3.97;2.00;;;;;;;;;;5060559;28;20103;-48
2022/05/17 04:29:53;;;;;;;3.90;1.92;;;;;;;;;;5051405;28;20599;-49
2022/05/17 04:32:19;;;;;;;2.55;1.73;;;;;;;;;;5052384;28;20390;-53
2022/05/17 04:34:45;;;;;;;3.65;1.65;;;;;;;;;;5069746;28;20487;-49
2022/05/17 04:37:11;;;;;;;4.32;2.15;;;;;;;;;;5070408;28;20119;-52
2022/05/17 04:39:37;;;;;;;5.03;1.88;;;;;;;;;;5062989;28;20170;-52
2022/05/17 04:42:03;;;;;;;2.17;1.85;;;;;;;;;;5054551;28;20105;-54
2022/05/17 04:44:29;;;;;;;3.47;2.30;;;;;;;;;;5070177;28;20025;-51
2022/05/17 04:46:56;;;;;;;2.22;1.77;;;;;;;;;;5059779;28;20083;-52
2022/05/17 04:49:22;;;;;;;4.40;2.10;;;;;;;;;;5054485;28;20032;-49
2022/05/17 04:51:52;;;;;;;2.38;1.85;;;;;;;;;;5056241;28;20027;-53
2022/05/17 04:54:18;;;;;;;5.88;2.25;;;;;;;;;;5069175;28;20017;-52
2022/05/17 04:56:44;;;;;;;6.55;1.80;;;;;;;;;;5069759;28;20037;-52
2022/05/17 04:59:10;;;;;;;5.40;2.35;;;;;;;;;;5056695;28;20040;-49
2022/05/17 05:01:38;;;;;;;2.83;2.20;;;;;;;;;;5057516;28;20024;-54
2022/05/17 05:04:04;;;;;;;2.22;1.77;;;;;;;;;;5061476;28;20516;-49
2022/05/17 05:06:30;;;;;;;4.75;1.90;;;;;;;;;;5081277;28;20044;-49
2022/05/17 05:08:56;;;;;;;4.97;1.95;;;;;;;;;;5072469;28;20082;-48
2022/05/17 05:11:22;;;;;;;4.32;1.95;;;;;;;;;;5080636;28;20028;-50
2022/05/17 05:13:49;;;;;;;4.68;2.10;;;;;;;;;;5084408;28;20461;-49
2022/05/17 05:16:15;;;;;;;3.55;2.28;;;;;;;;;;5093993;28;20476;-53
2022/05/17 05:18:41;;;;;;;3.80;1.90;;;;;;;;;;5093277;28;20042;-50
2022/05/17 05:21:09;;;;;;;4.78;2.10;;;;;;;;;;5084702;28;20036;-51
2022/05/17 05:23:36;;;;;;;2.80;1.90;;;;;;;;;;5088830;28;20025;-57
2022/05/17 05:26:02;;;;;;;4.97;2.00;;;;;;;;;;5073608;28;20040;-53
2022/05/17 05:28:28;;;;;;;5.03;1.67;;;;;;;;;;5091485;28;20024;-51
2022/05/17 05:30:54;;;;;;;4.30;2.10;;;;;;;;;;5091217;28;20618;-52
2022/05/17 05:33:21;;;;;;;3.92;1.88;;;;;;;;;;5094057;28;20016;-52
2022/05/17 05:35:46;;;;;;;7.63;2.38;;;;;;;;;;5091182;28;20030;-51
2022/05/17 05:38:13;;;;;;;3.83;2.28;;;;;;;;;;5083476;28;20028;-48
2022/05/17 05:40:39;;;;;;;6.85;2.80;;;;;;;;;;5073064;28;20021;-52
2022/05/17 05:43:06;;;;;;;4.15;2.67;;;;;;;;;;5074168;28;20118;-49
2022/05/17 05:45:32;;;;;;;3.83;1.92;;;;;;;;;;5073782;28;20370;-49
2022/05/17 05:47:59;;;;;;;6.15;2.63;;;;;;;;;;5073264;28;20031;-48
2022/05/17 05:50:25;;;;;;;3.67;2.60;;;;;;;;;;5074061;28;20112;-49
2022/05/17 05:52:51;;;;;;;3.90;2.40;;;;;;;;;;5073031;28;20293;-48
2022/05/17 05:55:21;;;;;;;6.72;2.85;;;;;;;;;;5074462;28;20016;-50
2022/05/17 05:57:48;;;;;;;10.25;2.65;;;;;;;;;;5073180;28;20033;-49
2022/05/17 06:00:15;;;;;;;4.70;2.45;;;;;;;;;;5074171;28;20032;-48
2022/05/17 06:02:41;;;;;;;4.88;2.65;;;;;;;;;;5072832;28;20141;-51
2022/05/17 06:05:07;;;;;;;6.40;2.33;;;;;;;;;;5074010;28;20032;-48
2022/05/17 06:07:34;;;;;;;6.07;2.60;;;;;;;;;;5073660;28;20086;-50
2022/05/17 06:10:01;;;;;;;5.88;2.40;;;;;;;;;;5072706;28;20032;-51
2022/05/17 06:12:27;;;;;;;6.85;2.95;;;;;;;;;;5075204;28;20466;-49
2022/05/17 06:14:53;;;;;;;5.43;2.28;;;;;;;;;;5073674;28;20138;-48
2022/05/17 06:17:23;;;;;;;2.80;2.03;;;;;;;;;;5073163;28;20036;-50
2022/05/17 06:19:50;;;;;;;4.47;1.90;;;;;;;;;;5072396;28;20508;-52
2022/05/17 06:22:16;;;;;;;4.00;2.08;;;;;;;;;;5071997;28;20147;-48
2022/05/17 06:24:41;;;;;;;4.15;1.95;;;;;;;;;;5073924;28;20457;-49
2022/05/17 06:27:07;;;;;;;2.45;1.83;;;;;;;;;;5082681;28;20028;-50
2022/05/17 06:29:33;;;;;;;4.78;2.25;;;;;;;;;;5093648;28;20465;-50
2022/05/17 06:31:59;;;;;;;4.88;2.60;;;;;;;;;;5073120;28;20093;-48
2022/05/17 06:34:25;;;;;;;2.95;1.63;;;;;;;;;;5081341;28;20024;-48
2022/05/17 06:36:51;;;;;;;2.95;1.85;;;;;;;;;;5092221;28;20549;-50
2022/05/17 06:39:17;;;;;;;2.25;1.73;;;;;;;;;;5082573;28;20032;-49
2022/05/17 06:41:44;;;;;;;3.60;2.40;;;;;;;;;;5072356;28;20086;-48
2022/05/17 06:44:10;;;;;;;2.58;1.70;;;;;;;;;;5072881;28;20060;-48
2022/05/17 06:46:36;;;;;;;4.40;2.15;;;;;;;;;;5072451;28;20086;-50
2022/05/17 06:49:03;;;;;;;2.75;2.00;;;;;;;;;;5071852;28;20032;-49
2022/05/17 06:51:29;;;;;;;3.22;1.90;;;;;;;;;;5083258;28;20055;-48
2022/05/17 06:53:55;;;;;;;4.55;1.80;;;;;;;;;;5083532;28;20027;-49
2022/05/17 06:56:21;;;;;;;3.08;2.05;;;;;;;;;;5092851;28;20027;-52
2022/05/17 06:58:47;;;;;;;3.83;2.03;;;;;;;;;;5077972;28;20489;-48
2022/05/17 07:01:13;;;;;;;3.85;1.88;;;;;;;;;;5057282;28;20043;-51
2022/05/17 07:03:39;;;;;;;4.68;2.20;;;;;;;;;;5055713;28;20492;-56
2022/05/17 07:06:05;;;;;;;4.25;2.92;;;;;;;;;;5054183;28;20059;-47
2022/05/17 07:08:31;;;;;;;3.35;1.60;;;;;;;;;;5066235;28;20032;-48
2022/05/17 07:13:41;;;;;;;4.90;2.00;;;;;;;;;;5065217;28;20397;-55
2022/05/17 07:16:07;;;;;;;5.53;2.13;;;;;;;;;;5071996;28;20101;-48
2022/05/17 07:18:34;;;;;;;3.15;1.83;;;;;;;;;;5069490;28;20028;-48
2022/05/17 07:21:00;;;;;;;3.05;2.10;;;;;;;;;;5051809;28;20595;-48
2022/05/17 07:23:26;;;;;;;6.57;3.15;;;;;;;;;;5064421;28;20247;-48
2022/05/17 07:25:53;;;;;;;4.35;2.50;;;;;;;;;;5058312;28;20032;-50
2022/05/17 07:28:20;;;;;;;3.97;2.15;;;;;;;;;;5072220;28;20154;-48
2022/05/17 07:30:46;;;;;;;3.47;2.28;;;;;;;;;;5070239;28;20416;-48
2022/05/17 07:33:12;;;;;;;2.78;1.90;;;;;;;;;;5071814;28;20037;-48
2022/05/17 07:35:38;;;;;;;3.42;2.53;;;;;;;;;;5072173;28;20035;-49
2022/05/17 07:38:06;;;;;;;4.35;2.20;;;;;;;;;;5074607;28;20075;-50
2022/05/17 07:40:32;;;;;;;3.28;2.10;;;;;;;;;;5071739;28;20453;-49
2022/05/17 07:42:59;;;;;;;3.63;2.42;;;;;;;;;;5071130;28;20017;-50
2022/05/17 07:45:26;;;;;;;4.78;2.00;;;;;;;;;;5071349;28;20039;-48
2022/05/17 07:47:52;;;;;;;3.83;1.80;;;;;;;;;;5071425;28;20036;-48
2022/05/17 07:50:18;;;;;;;3.65;2.20;;;;;;;;;;5072261;28;20020;-51
2022/05/17 07:52:44;;;;;;;3.22;1.90;;;;;;;;;;5087792;28;20488;-50
2022/05/17 07:55:11;;;;;;;4.63;2.00;;;;;;;;;;5071645;28;20052;-48
2022/05/17 07:57:37;;;;;;;3.25;1.92;;;;;;;;;;5076434;28;20077;-47
2022/05/17 08:00:05;;;;;;;3.55;1.83;;;;;;;;;;5091327;28;20079;-49
2022/05/17 08:02:31;;;;;;;5.10;1.95;;;;;;;;;;5092056;28;20446;-50
2022/05/17 08:04:57;;;;;;;5.00;2.10;;;;;;;;;;5091321;28;20028;-48
2022/05/17 08:07:23;;;;;;;3.70;1.98;;;;;;;;;;5090208;28;20089;-50
2022/05/17 08:09:49;;;;;;;2.60;1.70;;;;;;;;;;5070670;28;20021;-48
2022/05/17 08:12:15;;;;;;;2.97;1.88;;;;;;;;;;5071596;28;20036;-49
2022/05/17 08:14:41;;;;;;;3.88;2.45;;;;;;;;;;5071452;28;20104;-56
2022/05/17 08:17:08;;;;;;;4.93;2.10;;;;;;;;;;5071286;28;20032;-49
2022/05/17 08:19:38;;;;;;;3.63;1.85;;;;;;;;;;5071657;28;20033;-53
2022/05/17 08:22:05;;;;;;;3.67;2.13;;;;;;;;;;5085676;28;20113;-52
2022/05/17 08:27:31;;;;;;;2.47;1.90;;;;;;;;;;5090605;28;20478;-48
2022/05/17 08:27:36;;;;;;;4.03;2.13;;;;;;;;;;5076430;28;20041;-49
2022/05/17 08:30:05;;;;;;;3.95;2.00;;;;;;;;;;5070735;28;20071;-48
2022/05/17 08:35:15;;;;;;;4.50;2.33;;;;;;;;;;5091584;28;20051;-49
2022/05/17 08:37:41;;;;;;;4.57;2.28;;;;;;;;;;5088632;28;20032;-55
2022/05/17 08:40:19;;;;;;;4.97;2.42;;;;;;;;;;5070830;28;20101;-48
2022/05/17 08:42:54;;;;;;;7.25;2.22;;;;;;;;;;5070942;28;20047;-56
2022/05/17 08:45:22;;;;;;;3.75;1.92;;;;;;;;;;5071509;28;20512;-48
2022/05/17 08:47:51;;;;;;;4.63;2.28;;;;;;;;;;5088593;28;20108;-48
2022/05/17 08:50:23;;;;;;;3.10;2.17;;;;;;;;;;5095063;28;20016;-48
2022/05/17 08:52:49;;;;;;;4.97;2.40;;;;;;;;;;5090709;28;20055;-48
2022/05/17 08:55:27;;;;;;;4.05;2.55;;;;;;;;;;5074975;28;20428;-47
2022/05/17 08:57:58;;;;;;;4.93;2.05;;;;;;;;;;5074089;28;20066;-48
2022/05/17 09:00:25;;;;;;;4.38;2.35;;;;;;;;;;5074661;28;20028;-53
2022/05/17 09:02:54;;;;;;;4.18;1.95;;;;;;;;;;5074263;28;20033;-50
2022/05/17 09:05:33;;;;;;;5.70;2.25;;;;;;;;;;5074908;28;20039;-49
2022/05/17 09:08:02;;;;;;;4.05;2.42;;;;;;;;;;5074125;28;20039;-50
2022/05/17 09:10:35;;;;;;;3.67;2.08;;;;;;;;;;5074197;28;20017;-49
2022/05/17 09:13:05;;;;;;;4.75;2.22;;;;;;;;;;5074048;28;20029;-48
2022/05/17 09:15:31;;;;;;;4.90;1.70;;;;;;;;;;5074790;28;20029;-51
2022/05/17 09:18:00;;;;;;;5.60;2.15;;;;;;;;;;5092069;28;20042;-48
2022/05/17 09:20:31;;;;;;;3.50;1.92;;;;;;;;;;5094599;28;20111;-48
2022/05/17 09:22:58;;;;;;;3.80;1.98;;;;;;;;;;5086214;28;20465;-49
2022/05/17 09:25:44;;;;;;;3.15;2.05;;;;;;;;;;5074461;28;20025;-48
2022/05/17 09:28:10;;;;;;;6.55;2.67;;;;;;;;;;5072879;28;20028;-48
2022/05/17 09:30:37;;;;;;;3.60;1.98;;;;;;;;;;5079300;28;20103;-49
2022/05/17 09:33:14;;;;;;;5.90;2.10;;;;;;;;;;5073681;28;20029;-50
2022/05/17 09:35:53;;;;;;;3.42;2.03;;;;;;;;;;5092201;28;20023;-48
2022/05/17 09:38:20;;;;;;;4.15;2.38;;;;;;;;;;5075542;28;20043;-49
2022/05/17 09:40:48;;;;;;;6.70;2.75;;;;;;;;;;5060703;28;20500;-55
2022/05/17 09:43:16;;;;;;;3.80;2.13;;;;;;;;;;5065348;28;20067;-50
2022/05/17 09:46:00;;;;;;;2.60;1.95;;;;;;;;;;5061523;28;20128;-48
2022/05/17 09:48:31;;;;;;;2.63;1.88;;;;;;;;;;5069499;28;20362;-49
2022/05/17 09:53:46;;;;;;;6.35;1.90;;;;;;;;;;5078589;28;20032;-48
2022/05/17 09:56:13;;;;;;;4.22;2.03;;;;;;;;;;5053096;28;20035;-55
2022/05/17 09:58:41;;;;;;;5.68;2.00;;;;;;;;;;5071958;28;20027;-50
2022/05/17 10:01:16;;;;;;;4.03;2.00;;;;;;;;;;5072985;28;20459;-50
2022/05/17 10:03:44;;;;;;;2.90;2.10;;;;;;;;;;5073769;28;20103;-48
2022/05/17 10:06:27;;;;;;;3.63;1.85;;;;;;;;;;5072987;28;20119;-51
2022/05/17 10:09:06;;;;;;;5.32;2.08;;;;;;;;;;5072867;28;20351;-48
2022/05/17 10:12:05;;;;;;;2.92;1.80;;;;;;;;;;5073107;28;20024;-55
2022/05/17 10:14:31;;;;;;;4.07;2.10;;;;;;;;;;5039671;28;20181;-49
2022/05/17 10:17:10;;;;;;;5.90;2.40;;;;;;;;;;5072667;28;20034;-51
2022/05/17 10:19:43;;;;;;;3.28;1.75;;;;;;;;;;5073761;28;20043;-53
2022/05/17 10:22:17;;;;;;;2.97;1.90;;;;;;;;;;5087891;28;20056;-50
2022/05/17 10:24:46;;;;;;;7.85;2.20;;;;;;;;;;5093481;28;20485;-53
2022/05/17 10:27:22;;;;;;;2.28;1.70;;;;;;;;;;5091425;28;20032;-51
2022/05/17 10:29:52;;;;;;;5.53;2.05;;;;;;;;;;5092971;28;20020;-55
2022/05/17 10:32:19;;;;;;;3.00;2.58;;;;;;;;;;5093341;28;20027;-49
2022/05/17 10:34:51;;;;;;;2.42;1.83;;;;;;;;;;5083030;28;20036;-48
2022/05/17 10:37:22;;;;;;;4.53;2.22;;;;;;;;;;5073221;28;20374;-49
2022/05/17 10:39:55;;;;;;;3.20;1.90;;;;;;;;;;5072843;28;20033;-57
2022/05/17 10:42:21;;;;;;;3.03;1.67;;;;;;;;;;5072819;28;20020;-49
2022/05/17 10:44:50;;;;;;;5.07;1.90;;;;;;;;;;5080368;28;20029;-58
2022/05/17 10:47:22;;;;;;;2.33;1.63;;;;;;;;;;5073082;28;20064;-52
2022/05/17 10:49:54;;;;;;;3.20;2.10;;;;;;;;;;5087950;28;20082;-57
2022/05/17 10:52:30;;;;;;;2.80;1.80;;;;;;;;;;5089560;28;20020;-52
2022/05/17 10:55:02;;;;;;;3.15;1.80;;;;;;;;;;5052847;28;20025;-48
2022/05/17 10:57:35;;;;;;;3.22;1.70;;;;;;;;;;5093085;28;20099;-49
2022/05/17 11:00:09;;;;;;;4.03;1.77;;;;;;;;;;5092307;28;20035;-51
2022/05/17 11:02:53;;;;;;;3.55;1.98;;;;;;;;;;5087419;28;20036;-50
2022/05/17 11:05:25;;;;;;;4.28;1.92;;;;;;;;;;5072702;28;20393;-50
2022/05/17 11:08:07;;;;;;;4.45;1.85;;;;;;;;;;5071123;28;20107;-55
2022/05/17 11:10:52;;;;;;;3.58;2.15;;;;;;;;;;5072525;28;20055;-52
2022/05/17 11:13:31;;;;;;;2.03;1.67;;;;;;;;;;5072206;28;20436;-49
2022/05/17 11:16:05;;;;;;;5.53;2.22;;;;;;;;;;5071079;28;20524;-48
2022/05/17 11:18:42;;;;;;;2.25;1.73;;;;;;;;;;5091614;28;20378;-50
2022/05/17 11:21:12;;;;;;;3.30;1.80;;;;;;;;;;5091434;28;20024;-51
2022/05/17 11:23:38;;;;;;;2.67;1.73;;;;;;;;;;5092154;28;20411;-50
2022/05/17 11:26:04;;;;;;;2.33;1.92;;;;;;;;;;5089454;28;20020;-48
2022/05/17 11:28:46;;;;;;;2.25;1.75;;;;;;;;;;5071843;28;20028;-48
2022/05/17 11:31:21;;;;;;;2.42;1.73;;;;;;;;;;5071357;28;20024;-50
2022/05/17 11:33:47;;;;;;;3.33;1.63;;;;;;;;;;5072107;28;20028;-49
2022/05/17 11:36:33;;;;;;;2.65;1.70;;;;;;;;;;5071440;28;20037;-52
2022/05/17 11:39:03;;;;;;;3.38;2.08;;;;;;;;;;5070822;28;20435;-52
2022/05/17 11:41:35;;;;;;;3.03;1.70;;;;;;;;;;5072166;28;20087;-53
2022/05/17 11:44:05;;;;;;;6.00;2.25;;;;;;;;;;5071140;28;20028;-48
2022/05/17 11:46:31;;;;;;;2.70;1.63;;;;;;;;;;5071566;28;20055;-51
2022/05/17 11:49:00;;;;;;;2.33;1.70;;;;;;;;;;5071162;28;20029;-48
2022/05/17 11:51:31;;;;;;;4.70;2.33;;;;;;;;;;5081770;28;20020;-51
2022/05/17 11:53:57;;;;;;;3.60;1.58;;;;;;;;;;5090706;28;20032;-48
2022/05/17 11:56:26;;;;;;;2.38;1.63;;;;;;;;;;5090999;28;20483;-49
2022/05/17 11:58:53;;;;;;;2.47;1.60;;;;;;;;;;5086290;28;20050;-56
2022/05/17 12:01:35;;;;;;;2.45;1.70;;;;;;;;;;5081658;28;20028;-48
2022/05/17 12:04:28;;;;;;;3.90;1.50;;;;;;;;;;5071065;28;20039;-51
2022/05/17 12:06:54;;;;;;;2.95;1.60;;;;;;;;;;5070822;28;20388;-56
2022/05/17 12:09:24;;;;;;;2.75;1.40;;;;;;;;;;5071429;28;20021;-50
2022/05/17 12:11:57;;;;;;;3.58;1.80;;;;;;;;;;5071801;28;20024;-49
2022/05/17 12:14:46;;;;;;;2.67;1.83;;;;;;;;;;5071448;28;20028;-52
2022/05/17 12:17:15;;;;;;;28.92;6.90;;;;;;;;;;5081311;28;20644;-49
2022/05/17 12:19:50;;;;;;;21.55;6.30;;;;;;;;;;5092877;28;20048;-49
2022/05/17 12:22:29;;;;;;;37.10;15.80;;;;;;;;;;5078205;28;20029;-51
2022/05/17 12:25:33;;;;;;;18.83;7.47;;;;;;;;;;5074736;28;20556;-55
2022/05/17 12:28:00;;;;;;;19.20;5.75;;;;;;;;;;5032490;28;20033;-48
2022/05/17 12:33:19;;;;;;;15.60;5.10;;;;;;;;;;5047288;28;20101;-49
2022/05/17 12:35:46;;;;;;;11.70;4.72;;;;;;;;;;5055464;28;20025;-49
2022/05/17 12:43:45;;;;;;;8.73;3.90;;;;;;;;;;5075389;28;20502;-50
2022/05/17 12:46:26;;;;;;;10.80;4.25;;;;;;;;;;5073951;28;20163;-51
2022/05/17 12:48:52;;;;;;;7.00;3.23;;;;;;;;;;5075425;28;20473;-54
2022/05/17 12:51:19;;;;;;;11.32;4.13;;;;;;;;;;5075509;28;20051;-53
2022/05/17 12:53:46;;;;;;;9.48;4.10;;;;;;;;;;5088494;28;20051;-50
2022/05/17 12:56:24;;;;;;;6.38;3.72;;;;;;;;;;5089974;28;20127;-49
2022/05/17 12:58:52;;;;;;;8.60;3.75;;;;;;;;;;5073875;28;20025;-51
2022/05/17 13:01:25;;;;;;;9.20;3.42;;;;;;;;;;5080632;28;20028;-51
2022/05/17 13:03:53;;;;;;;8.38;3.78;;;;;;;;;;5094562;28;20032;-50
2022/05/17 13:06:19;;;;;;;8.38;4.05;;;;;;;;;;5094577;28;20032;-53
2022/05/17 13:08:46;;;;;;;5.82;3.00;;;;;;;;;;5094176;28;20032;-53
2022/05/17 13:11:26;;;;;;;8.93;3.35;;;;;;;;;;5079141;28;20099;-52
2022/05/17 13:13:59;;;;;;;5.53;2.72;;;;;;;;;;5074850;28;20025;-53
2022/05/17 13:16:31;;;;;;;6.43;2.90;;;;;;;;;;5084019;28;20029;-52
2022/05/17 13:19:00;;;;;;;4.18;2.70;;;;;;;;;;5094076;28;20039;-57
2022/05/17 13:21:31;;;;;;;7.93;3.20;;;;;;;;;;5094906;28;20118;-51
2022/05/17 13:23:58;;;;;;;5.30;2.42;;;;;;;;;;5073643;28;20020;-57
2022/05/17 13:26:26;;;;;;;7.13;2.95;;;;;;;;;;5074630;28;20021;-53
2022/05/17 13:28:52;;;;;;;4.03;2.40;;;;;;;;;;5074278;28;20481;-52
2022/05/17 13:31:20;;;;;;;4.78;2.50;;;;;;;;;;5072556;28;20040;-52
2022/05/17 13:33:53;;;;;;;4.15;2.28;;;;;;;;;;5074289;28;20020;-52
2022/05/17 13:36:30;;;;;;;5.85;2.83;;;;;;;;;;5085885;28;20028;-51
2022/05/17 13:38:56;;;;;;;3.90;3.03;;;;;;;;;;5093646;28;20342;-56
2022/05/17 13:41:27;;;;;;;8.68;3.17;;;;;;;;;;5094179;28;20465;-50
2022/05/17 13:43:58;;;;;;;3.43;2.13;;;;;;;;;;5092987;28;20139;-51
2022/05/17 13:46:34;;;;;;;3.87;2.03;;;;;;;;;;5090462;28;20497;-49
2022/05/17 13:49:12;;;;;;;2.80;1.83;;;;;;;;;;5073423;28;20037;-52
2022/05/17 13:51:50;;;;;;;4.68;2.17;;;;;;;;;;5085155;28;20419;-50
2022/05/17 13:54:32;;;;;;;5.53;2.55;;;;;;;;;;5077411;28;20020;-49
2022/05/17 13:57:04;;;;;;;5.20;2.72;;;;;;;;;;5084990;28;20016;-56
2022/05/17 13:59:30;;;;;;;3.85;2.08;;;;;;;;;;5082368;28;20503;-48
2022/05/17 14:01:58;;;;;;;3.78;2.15;;;;;;;;;;5073303;28;20063;-55
2022/05/17 14:04:36;;;;;;;3.83;1.77;;;;;;;;;;5072405;28;20465;-48
2022/05/17 14:07:04;;;;;;;2.63;1.73;;;;;;;;;;5072647;28;20036;-51
2022/05/17 14:12:18;;;;;;;4.15;1.83;;;;;;;;;;5073027;28;20206;-55
2022/05/17 14:14:45;;;;;;;4.63;2.42;;;;;;;;;;5073379;28;20077;-53
2022/05/17 14:17:14;;;;;;;7.32;2.10;;;;;;;;;;5072605;28;20054;-55
2022/05/17 14:19:41;;;;;;;2.88;2.03;;;;;;;;;;5073541;28;20119;-55
2022/05/17 14:22:09;;;;;;;4.75;1.70;;;;;;;;;;5088059;28;20034;-49
2022/05/17 14:24:35;;;;;;;2.67;1.80;;;;;;;;;;5093615;28;20024;-55
2022/05/17 14:27:02;;;;;;;3.80;1.67;;;;;;;;;;5093022;28;20028;-52
2022/05/17 14:29:34;;;;;;;3.75;1.90;;;;;;;;;;5087683;28;20047;-54
2022/05/17 14:32:01;;;;;;;3.03;1.42;;;;;;;;;;5075171;28;20028;-55
2022/05/17 14:34:27;;;;;;;3.45;1.30;;;;;;;;;;5072453;28;20074;-54
2022/05/17 14:36:54;;;;;;;3.47;1.50;;;;;;;;;;5071281;28;20527;-53
2022/05/17 14:39:20;;;;;;;5.03;1.77;;;;;;;;;;5078784;28;20111;-53
2022/05/17 14:41:49;;;;;;;2.47;1.30;;;;;;;;;;5086224;28;20377;-50
2022/05/17 14:44:15;;;;;;;3.15;2.10;;;;;;;;;;5092532;28;20119;-52
2022/05/17 14:46:41;;;;;;;5.95;1.67;;;;;;;;;;5092263;28;20131;-52
2022/05/17 14:49:08;;;;;;;3.17;1.40;;;;;;;;;;5092136;28;20028;-53
2022/05/17 14:51:34;;;;;;;4.65;1.80;;;;;;;;;;5092869;28;20028;-56
2022/05/17 14:54:00;;;;;;;4.20;1.60;;;;;;;;;;5078674;28;20025;-58
2022/05/17 14:56:27;;;;;;;4.90;1.88;;;;;;;;;;5086788;28;20380;-57
2022/05/17 14:58:53;;;;;;;2.40;1.50;;;;;;;;;;5091239;28;20016;-57
2022/05/17 15:01:20;;;;;;;2.22;1.20;;;;;;;;;;5091004;28;20024;-52
2022/05/17 15:03:56;;;;;;;3.63;1.60;;;;;;;;;;5092992;28;20476;-50
2022/05/17 15:06:23;;;;;;;3.40;1.73;;;;;;;;;;5091924;28;20039;-55
2022/05/17 15:08:49;;;;;;;4.75;1.52;;;;;;;;;;5092519;28;20027;-50
2022/05/17 15:11:15;;;;;;;1.45;1.00;;;;;;;;;;5078023;28;20548;-60
2022/05/17 15:13:42;;;;;;;3.03;1.10;;;;;;;;;;5092553;28;20020;-54